EZY224 LEPA-LEBL
Flight info
| Callsign | EZY224 |
|---|---|
| Flight time | N/A |
| Altitude | 18000 |
| Route | ESPOR L2 NEPAL |
| Aircraft | A320/M-SDE3FGHIRWY/LB1 |
Departure
| Time | 2026-05-05 19:46 |
|---|---|
| Airport | Palma de Mallorca Airport (LEPA) |
Arrival
| Time | N/A |
|---|---|
| Airport | Josep Tarradellas Barcelona-El Prat Airport (LEBL) |
| Time | Latitude | Longitude | Altitude | Speed | Heading |
|---|---|---|---|---|---|
| 2026-05-05 19:16 | 39.55051 | 2.72802 | 36 ft | 0 kts | 146° |
| 2026-05-05 19:33 | 39.55052 | 2.72801 | 38 ft | 2 kts | 146° |
| 2026-05-05 19:33 | 39.55072 | 2.72782 | 37 ft | 4 kts | 140° |
| 2026-05-05 19:33 | 39.55091 | 2.72758 | 36 ft | 4 kts | 125° |
| 2026-05-05 19:34 | 39.55101 | 2.72729 | 37 ft | 4 kts | 79° |
| 2026-05-05 19:34 | 39.55099 | 2.72719 | 37 ft | 0 kts | 58° |
| 2026-05-05 19:37 | 39.55113 | 2.72748 | 27 ft | 8 kts | 58° |
| 2026-05-05 19:38 | 39.55154 | 2.72836 | 38 ft | 13 kts | 58° |
| 2026-05-05 19:38 | 39.55198 | 2.72929 | 38 ft | 12 kts | 58° |
| 2026-05-05 19:38 | 39.55238 | 2.73014 | 38 ft | 11 kts | 56° |
| 2026-05-05 19:38 | 39.55322 | 2.73015 | 37 ft | 16 kts | 330° |
| 2026-05-05 19:39 | 39.55424 | 2.73012 | 38 ft | 19 kts | 55° |
| 2026-05-05 19:39 | 39.55506 | 2.73185 | 38 ft | 25 kts | 59° |
| 2026-05-05 19:39 | 39.55601 | 2.73389 | 38 ft | 23 kts | 58° |
| 2026-05-05 19:39 | 39.55677 | 2.73548 | 38 ft | 20 kts | 58° |
| 2026-05-05 19:40 | 39.55748 | 2.73699 | 38 ft | 19 kts | 59° |
| 2026-05-05 19:40 | 39.55818 | 2.73846 | 38 ft | 19 kts | 58° |
| 2026-05-05 19:40 | 39.55883 | 2.73983 | 38 ft | 17 kts | 58° |
| 2026-05-05 19:40 | 39.55943 | 2.74111 | 37 ft | 16 kts | 58° |
| 2026-05-05 19:41 | 39.55998 | 2.74227 | 38 ft | 15 kts | 55° |
| 2026-05-05 19:41 | 39.56063 | 2.74284 | 38 ft | 7 kts | 27° |
| 2026-05-05 19:41 | 39.56104 | 2.74311 | 38 ft | 6 kts | 27° |
| 2026-05-05 19:41 | 39.56141 | 2.74337 | 37 ft | 6 kts | 28° |
| 2026-05-05 19:42 | 39.56148 | 2.74342 | 38 ft | 0 kts | 28° |
| 2026-05-05 19:43 | 39.56157 | 2.74346 | 38 ft | 4 kts | 22° |
| 2026-05-05 19:43 | 39.56198 | 2.74345 | 38 ft | 9 kts | 341° |
| 2026-05-05 19:43 | 39.56229 | 2.74261 | 38 ft | 14 kts | 250° |
| 2026-05-05 19:43 | 39.56223 | 2.74250 | 38 ft | 0 kts | 235° |
| 2026-05-05 19:45 | 39.56191 | 2.74188 | 38 ft | 24 kts | 238° |
| 2026-05-05 19:45 | 39.55997 | 2.73774 | 38 ft | 90 kts | 239° |
| 2026-05-05 19:46 | 39.55559 | 2.72848 | 40 ft | 148 kts | 238° |
| 2026-05-05 19:46 | 39.54985 | 2.71650 | 597 ft | 154 kts | 237° |
| 2026-05-05 19:46 | 39.54423 | 2.70458 | 1306 ft | 161 kts | 238° |
| 2026-05-05 19:46 | 39.53787 | 2.69160 | 1753 ft | 180 kts | 238° |
| 2026-05-05 19:47 | 39.53053 | 2.67705 | 2095 ft | 207 kts | 238° |
| 2026-05-05 19:47 | 39.52231 | 2.66120 | 2871 ft | 214 kts | 237° |
| 2026-05-05 19:47 | 39.51405 | 2.64540 | 3932 ft | 210 kts | 238° |
| 2026-05-05 19:47 | 39.50608 | 2.62957 | 4880 ft | 212 kts | 239° |
| 2026-05-05 19:48 | 39.49803 | 2.61336 | 5731 ft | 216 kts | 240° |
| 2026-05-05 19:48 | 39.48976 | 2.59695 | 6613 ft | 219 kts | 239° |
| 2026-05-05 19:48 | 39.48129 | 2.58048 | 7477 ft | 221 kts | 238° |
| 2026-05-05 19:48 | 39.47269 | 2.56395 | 8399 ft | 221 kts | 239° |
| 2026-05-05 19:49 | 39.46418 | 2.54733 | 9318 ft | 224 kts | 239° |
| 2026-05-05 19:49 | 39.45848 | 2.53603 | 9851 ft | 229 kts | 239° |
| 2026-05-05 19:49 | 39.44794 | 2.51140 | 10803 ft | 241 kts | 256° |
| 2026-05-05 19:49 | 39.44878 | 2.48902 | 11219 ft | 268 kts | 287° |
| 2026-05-05 19:50 | 39.45931 | 2.46774 | 11616 ft | 298 kts | 309° |
| 2026-05-05 19:50 | 39.47715 | 2.45161 | 11966 ft | 330 kts | 328° |
| 2026-05-05 19:50 | 39.49909 | 2.43992 | 12488 ft | 348 kts | 335° |
| 2026-05-05 19:50 | 39.52242 | 2.43000 | 13188 ft | 357 kts | 336° |
| 2026-05-05 19:51 | 39.54642 | 2.42052 | 13902 ft | 364 kts | 337° |
| 2026-05-05 19:51 | 39.57078 | 2.41091 | 14602 ft | 368 kts | 336° |
| 2026-05-05 19:51 | 39.59510 | 2.40100 | 15282 ft | 372 kts | 335° |
| 2026-05-05 19:51 | 39.61984 | 2.39057 | 15760 ft | 375 kts | 335° |
| 2026-05-05 19:52 | 39.64462 | 2.37986 | 15905 ft | 375 kts | 334° |
| 2026-05-05 19:52 | 39.66931 | 2.36899 | 15945 ft | 374 kts | 334° |
| 2026-05-05 19:52 | 39.69387 | 2.35809 | 15944 ft | 374 kts | 334° |
| 2026-05-05 19:52 | 39.71850 | 2.34711 | 15943 ft | 374 kts | 334° |
| 2026-05-05 19:53 | 39.74307 | 2.33617 | 15926 ft | 374 kts | 334° |
| 2026-05-05 19:53 | 39.76769 | 2.32524 | 15921 ft | 374 kts | 334° |
| 2026-05-05 19:53 | 39.79237 | 2.31430 | 15943 ft | 374 kts | 334° |
| 2026-05-05 19:53 | 39.81701 | 2.30339 | 15936 ft | 374 kts | 334° |
| 2026-05-05 19:54 | 39.84167 | 2.29248 | 15927 ft | 374 kts | 334° |
| 2026-05-05 19:54 | 39.86630 | 2.28159 | 15939 ft | 373 kts | 334° |
| 2026-05-05 19:54 | 39.89090 | 2.27071 | 15939 ft | 372 kts | 334° |
| 2026-05-05 19:54 | 39.91539 | 2.25987 | 15932 ft | 372 kts | 334° |
| 2026-05-05 19:55 | 39.93991 | 2.24897 | 15941 ft | 372 kts | 334° |
| 2026-05-05 19:55 | 39.96439 | 2.23806 | 15932 ft | 372 kts | 334° |
| 2026-05-05 19:55 | 39.98890 | 2.22715 | 15938 ft | 372 kts | 334° |
| 2026-05-05 19:55 | 40.01346 | 2.21622 | 15955 ft | 372 kts | 334° |
| 2026-05-05 19:56 | 40.03791 | 2.20536 | 15942 ft | 371 kts | 334° |
| 2026-05-05 19:56 | 40.06235 | 2.19447 | 15939 ft | 371 kts | 334° |
| 2026-05-05 19:56 | 40.08683 | 2.18353 | 15940 ft | 371 kts | 334° |
| 2026-05-05 19:56 | 40.11122 | 2.17263 | 15940 ft | 371 kts | 334° |
| 2026-05-05 19:57 | 40.13565 | 2.16170 | 15936 ft | 371 kts | 334° |
| 2026-05-05 19:57 | 40.15181 | 2.15447 | 15936 ft | 371 kts | 334° |
| 2026-05-05 19:57 | 40.18415 | 2.13999 | 15937 ft | 371 kts | 334° |
| 2026-05-05 19:57 | 40.20855 | 2.12906 | 15937 ft | 371 kts | 334° |
| 2026-05-05 19:58 | 40.23296 | 2.11812 | 15938 ft | 371 kts | 334° |
| 2026-05-05 19:58 | 40.25737 | 2.10713 | 15945 ft | 370 kts | 334° |
| 2026-05-05 19:58 | 40.28171 | 2.09616 | 15941 ft | 370 kts | 334° |
| 2026-05-05 19:58 | 40.30616 | 2.08545 | 15938 ft | 371 kts | 335° |
| 2026-05-05 19:59 | 40.33078 | 2.07517 | 15941 ft | 371 kts | 336° |
| 2026-05-05 19:59 | 40.35544 | 2.06508 | 15938 ft | 371 kts | 336° |
| 2026-05-05 19:59 | 40.38015 | 2.05502 | 15940 ft | 371 kts | 336° |
| 2026-05-05 19:59 | 40.40476 | 2.04497 | 15940 ft | 371 kts | 336° |
| 2026-05-05 20:00 | 40.42942 | 2.03485 | 15938 ft | 371 kts | 336° |
| 2026-05-05 20:00 | 40.45411 | 2.02465 | 15942 ft | 371 kts | 336° |
| 2026-05-05 20:00 | 40.47870 | 2.01441 | 15944 ft | 370 kts | 336° |
| 2026-05-05 20:00 | 40.50325 | 2.00417 | 15940 ft | 370 kts | 336° |
| 2026-05-05 20:01 | 40.52774 | 1.99392 | 15886 ft | 368 kts | 336° |
| 2026-05-05 20:01 | 40.55199 | 1.98380 | 15625 ft | 362 kts | 336° |
| 2026-05-05 20:01 | 40.57579 | 1.97384 | 15376 ft | 360 kts | 336° |
| 2026-05-05 20:01 | 40.59967 | 1.96383 | 15123 ft | 358 kts | 337° |
| 2026-05-05 20:02 | 40.62340 | 1.95390 | 14875 ft | 357 kts | 337° |
| 2026-05-05 20:02 | 40.64698 | 1.94406 | 14633 ft | 353 kts | 337° |
| 2026-05-05 20:02 | 40.67094 | 1.93689 | 14390 ft | 356 kts | 349° |
| 2026-05-05 20:02 | 40.69580 | 1.93723 | 14110 ft | 359 kts | 4° |
| 2026-05-05 20:03 | 40.70818 | 1.94032 | 13894 ft | 361 kts | 11° |